createdAt,value
2017-09-17T00:00:34.125Z,99.90
2017-09-17T00:03:00.521Z,99.90
2017-09-17T00:05:27.643Z,99.90
2017-09-17T00:07:54.047Z,99.90
2017-09-17T00:10:20.394Z,99.90
2017-09-17T00:12:46.751Z,99.90
2017-09-17T00:15:13.851Z,99.90
2017-09-17T00:17:40.226Z,99.90
2017-09-17T00:20:07.310Z,99.90
2017-09-17T00:22:33.913Z,99.90
2017-09-17T00:25:01.032Z,99.90
2017-09-17T00:27:27.342Z,99.90
2017-09-17T00:29:53.700Z,99.90
2017-09-17T00:32:20.064Z,99.90
2017-09-17T00:34:47.135Z,99.90
2017-09-17T00:37:13.489Z,99.90
2017-09-17T00:39:39.874Z,99.90
2017-09-17T00:42:06.274Z,99.90
2017-09-17T00:44:33.720Z,99.90
2017-09-17T00:47:00.107Z,99.90
2017-09-17T00:49:26.530Z,99.90
2017-09-17T00:51:52.920Z,99.90
2017-09-17T00:54:20.066Z,99.90
2017-09-17T00:56:46.458Z,99.90
2017-09-17T00:59:12.882Z,99.90
2017-09-17T01:01:39.293Z,99.90
2017-09-17T01:04:05.657Z,99.90
2017-09-17T01:06:32.443Z,99.90
2017-09-17T01:08:59.578Z,99.90
2017-09-17T01:11:26.714Z,99.90
2017-09-17T01:13:53.112Z,99.90
2017-09-17T01:16:19.479Z,99.90
2017-09-17T01:18:45.845Z,99.90
2017-09-17T01:21:12.251Z,99.90
2017-09-17T01:23:39.578Z,99.90
2017-09-17T01:26:05.960Z,99.90
2017-09-17T01:28:32.324Z,99.90
2017-09-17T01:30:58.706Z,99.90
2017-09-17T01:33:26.146Z,99.90
2017-09-17T01:35:53.229Z,99.90
2017-09-17T01:38:19.579Z,99.90
2017-09-17T01:40:46.007Z,99.90
2017-09-17T01:43:12.379Z,99.90
2017-09-17T01:45:38.727Z,99.90
2017-09-17T01:48:05.172Z,99.90
2017-09-17T01:50:31.501Z,99.90
2017-09-17T01:52:57.850Z,99.90
2017-09-17T01:55:24.545Z,99.90
2017-09-17T01:57:51.614Z,99.90
2017-09-17T02:00:18.008Z,99.90
2017-09-17T02:02:45.104Z,99.90
2017-09-17T02:05:11.463Z,99.90
2017-09-17T02:07:37.813Z,99.90
2017-09-17T02:10:04.897Z,99.90
2017-09-17T02:12:31.597Z,99.90
2017-09-17T02:14:58.726Z,99.90
2017-09-17T02:17:25.083Z,99.90
2017-09-17T02:19:52.178Z,99.90
2017-09-17T02:22:18.533Z,99.90
2017-09-17T02:24:44.869Z,99.90
2017-09-17T02:27:11.199Z,99.90
2017-09-17T02:29:37.566Z,99.90
2017-09-17T02:32:03.924Z,99.90
2017-09-17T02:34:31.636Z,99.90
2017-09-17T02:36:58.708Z,99.90
2017-09-17T02:39:25.098Z,99.90
2017-09-17T02:41:51.503Z,99.90
2017-09-17T02:44:17.868Z,99.90
2017-09-17T02:46:44.980Z,99.90
2017-09-17T02:49:11.407Z,99.90
2017-09-17T02:51:37.780Z,99.90
2017-09-17T02:54:04.892Z,99.90
2017-09-17T02:56:31.263Z,99.90
2017-09-17T02:58:58.361Z,99.90
2017-09-17T03:01:25.129Z,99.90
2017-09-17T03:06:24.834Z,99.90
2017-09-17T03:08:51.143Z,99.90
2017-09-17T03:11:17.474Z,99.90
2017-09-17T03:13:43.809Z,99.90
2017-09-17T03:16:10.177Z,99.90
2017-09-17T03:18:37.294Z,99.90
2017-09-17T03:21:03.647Z,99.90
2017-09-17T03:23:35.878Z,99.90
2017-09-17T03:26:02.259Z,99.90
2017-09-17T03:28:29.686Z,99.90
2017-09-17T03:30:56.030Z,99.90
2017-09-17T03:33:22.420Z,99.90
2017-09-17T03:35:48.797Z,99.90
2017-09-17T03:38:15.860Z,99.90
2017-09-17T03:40:42.958Z,99.90
2017-09-17T03:43:09.336Z,99.90
2017-09-17T03:45:36.501Z,99.90
2017-09-17T03:48:02.852Z,99.90
2017-09-17T03:50:29.617Z,99.90
2017-09-17T03:52:55.980Z,99.90
2017-09-17T03:55:22.338Z,99.90
2017-09-17T03:57:48.702Z,99.90
2017-09-17T04:00:15.059Z,99.90
2017-09-17T04:02:41.456Z,99.90
2017-09-17T04:05:07.844Z,99.90
2017-09-17T04:07:34.203Z,99.90
2017-09-17T04:10:00.537Z,99.90
2017-09-17T04:12:27.187Z,99.90
2017-09-17T04:14:53.547Z,99.90
2017-09-17T04:17:20.640Z,99.90
2017-09-17T04:19:46.986Z,99.90
2017-09-17T04:22:13.320Z,99.90
2017-09-17T04:24:39.996Z,99.90
2017-09-17T04:27:07.082Z,99.90
2017-09-17T04:29:33.417Z,99.90
2017-09-17T04:31:59.785Z,99.90
2017-09-17T04:34:26.504Z,99.90
2017-09-17T04:36:52.838Z,99.90
2017-09-17T04:39:19.933Z,99.90
2017-09-17T04:41:46.297Z,99.90
2017-09-17T04:44:12.651Z,99.90
2017-09-17T04:46:39.721Z,98.70
2017-09-17T04:49:06.849Z,98.00
2017-09-17T04:51:33.229Z,98.00
2017-09-17T04:53:59.581Z,97.30
2017-09-17T04:56:25.944Z,95.90
2017-09-17T04:58:52.324Z,95.80
2017-09-17T05:01:18.986Z,95.90
2017-09-17T05:03:45.385Z,96.20
2017-09-17T05:06:11.727Z,96.60
2017-09-17T05:08:38.173Z,96.50
2017-09-17T05:11:04.524Z,96.70
2017-09-17T05:13:31.616Z,96.90
2017-09-17T05:15:57.964Z,96.90
2017-09-17T05:18:24.335Z,96.80
2017-09-17T05:20:51.435Z,96.90
2017-09-17T05:23:17.798Z,96.90
2017-09-17T05:25:44.155Z,97.40
2017-09-17T05:28:10.847Z,97.50
2017-09-17T05:30:37.213Z,97.80
2017-09-17T05:33:03.583Z,98.30
2017-09-17T05:35:29.973Z,98.20
2017-09-17T05:37:57.094Z,98.50
2017-09-17T05:40:23.468Z,98.80
2017-09-17T05:42:49.823Z,98.60
2017-09-17T05:45:16.230Z,98.70
2017-09-17T05:47:42.598Z,98.80
2017-09-17T05:50:08.965Z,98.90
2017-09-17T05:52:36.070Z,99.10
2017-09-17T05:55:02.442Z,99.00
2017-09-17T05:57:29.541Z,99.20
2017-09-17T05:59:55.949Z,99.20
2017-09-17T06:02:22.291Z,99.30
2017-09-17T06:04:48.637Z,99.40
2017-09-17T06:07:15.302Z,99.60
2017-09-17T06:09:42.391Z,99.70
2017-09-17T06:12:08.740Z,99.70
2017-09-17T06:14:35.111Z,99.80
2017-09-17T06:17:02.237Z,99.90
2017-09-17T06:19:28.641Z,99.90
2017-09-17T06:21:55.002Z,99.90
2017-09-17T06:24:21.407Z,99.90
2017-09-17T06:26:47.777Z,99.90
2017-09-17T06:29:14.508Z,99.90
2017-09-17T06:31:41.579Z,99.90
2017-09-17T06:34:07.973Z,99.90
2017-09-17T06:36:34.339Z,99.90
2017-09-17T06:39:00.727Z,99.90
2017-09-17T06:41:27.114Z,99.90
2017-09-17T06:43:53.444Z,99.90
2017-09-17T06:46:20.535Z,99.90
2017-09-17T06:48:47.023Z,99.90
2017-09-17T06:51:13.675Z,99.90
2017-09-17T06:56:13.174Z,99.20
2017-09-17T06:58:39.562Z,99.40
2017-09-17T07:01:05.927Z,98.80
2017-09-17T07:03:32.278Z,98.70
2017-09-17T07:05:58.652Z,98.60
2017-09-17T07:08:24.992Z,98.80
2017-09-17T07:10:52.072Z,98.90
2017-09-17T07:13:18.762Z,98.90
2017-09-17T07:15:45.898Z,99.10
2017-09-17T07:18:12.244Z,99.10
2017-09-17T07:20:39.387Z,98.50
2017-09-17T07:23:05.821Z,98.50
2017-09-17T07:25:32.152Z,98.50
2017-09-17T07:27:58.511Z,98.30
2017-09-17T07:30:24.934Z,98.20
2017-09-17T07:32:51.281Z,98.00
2017-09-17T07:35:17.995Z,97.90
2017-09-17T07:37:45.114Z,97.20
2017-09-17T07:40:11.510Z,97.20
2017-09-17T07:42:37.884Z,97.10
2017-09-17T07:45:04.232Z,97.20
2017-09-17T07:47:30.947Z,96.90
2017-09-17T07:49:57.448Z,96.70
2017-09-17T07:52:23.799Z,96.40
2017-09-17T07:54:50.210Z,96.10
2017-09-17T07:57:16.592Z,96.10
2017-09-17T07:59:44.040Z,94.90
2017-09-17T08:02:10.419Z,94.90
2017-09-17T08:04:36.807Z,94.30
2017-09-17T08:07:04.244Z,94.20
2017-09-17T08:09:31.364Z,93.30
2017-09-17T08:11:57.716Z,93.30
2017-09-17T08:14:24.095Z,93.00
2017-09-17T08:16:50.454Z,92.10
2017-09-17T08:19:16.831Z,91.40
2017-09-17T08:21:43.252Z,90.90
2017-09-17T08:24:09.964Z,90.60
2017-09-17T08:26:36.307Z,91.00
2017-09-17T08:29:03.421Z,90.70
2017-09-17T08:31:29.809Z,90.70
2017-09-17T08:33:56.217Z,91.00
2017-09-17T08:36:22.611Z,91.70
2017-09-17T08:38:48.943Z,91.70
2017-09-17T08:41:15.603Z,91.90
2017-09-17T08:43:42.004Z,92.10
2017-09-17T08:46:08.342Z,92.10
2017-09-17T08:48:34.764Z,91.50
2017-09-17T08:51:01.131Z,90.70
2017-09-17T08:53:28.300Z,86.40
2017-09-17T08:55:55.442Z,87.40
2017-09-17T08:58:22.877Z,88.70
2017-09-17T09:00:49.303Z,88.60
2017-09-17T09:03:15.711Z,88.80
2017-09-17T09:05:42.095Z,88.90
2017-09-17T09:08:08.534Z,87.90
2017-09-17T09:10:35.282Z,85.90
2017-09-17T09:13:01.711Z,86.00
2017-09-17T09:15:28.126Z,84.70
2017-09-17T09:17:54.530Z,83.30
2017-09-17T09:20:20.976Z,81.00
2017-09-17T09:22:48.162Z,84.20
2017-09-17T09:25:14.583Z,84.20
2017-09-17T09:27:40.932Z,85.50
2017-09-17T09:30:07.350Z,85.00
2017-09-17T09:32:34.787Z,84.80
2017-09-17T09:35:01.209Z,84.10
2017-09-17T09:37:28.331Z,84.90
2017-09-17T09:39:55.515Z,82.90
2017-09-17T09:42:21.970Z,82.90
2017-09-17T09:44:48.424Z,82.00
2017-09-17T09:47:14.891Z,81.30
2017-09-17T09:49:42.109Z,81.00
2017-09-17T09:52:08.556Z,81.00
2017-09-17T09:54:35.296Z,79.90
2017-09-17T09:57:02.465Z,81.00
2017-09-17T09:59:29.635Z,82.00
2017-09-17T10:01:56.046Z,81.90
2017-09-17T10:04:22.433Z,79.70
2017-09-17T10:06:49.208Z,79.20
2017-09-17T10:09:16.318Z,79.80
2017-09-17T10:11:42.700Z,79.70
2017-09-17T10:14:09.155Z,80.20
2017-09-17T10:16:35.551Z,81.20
2017-09-17T10:19:02.698Z,81.20
2017-09-17T10:21:29.124Z,81.10
2017-09-17T10:23:55.784Z,80.60
2017-09-17T10:26:22.181Z,79.40
2017-09-17T10:28:48.611Z,79.20
2017-09-17T10:31:15.022Z,79.30
2017-09-17T10:33:41.461Z,80.00
2017-09-17T10:36:08.235Z,79.30
2017-09-17T10:38:34.640Z,79.20
2017-09-17T10:41:01.023Z,79.20
2017-09-17T10:43:27.415Z,78.60
2017-09-17T10:45:54.514Z,79.70
2017-09-17T10:48:20.933Z,79.70
2017-09-17T10:50:47.274Z,80.40
2017-09-17T10:53:13.756Z,81.20
2017-09-17T10:55:40.883Z,82.20
2017-09-17T10:58:07.633Z,82.10
2017-09-17T11:00:33.966Z,81.90
2017-09-17T11:03:01.071Z,79.90
2017-09-17T11:05:27.454Z,79.90
2017-09-17T11:07:54.597Z,78.50
2017-09-17T11:10:21.708Z,75.90
2017-09-17T11:12:48.083Z,75.90
2017-09-17T11:15:15.544Z,75.40
2017-09-17T11:17:42.640Z,76.60
2017-09-17T11:20:09.010Z,76.60
2017-09-17T11:22:35.376Z,76.10
2017-09-17T11:25:01.720Z,75.90
2017-09-17T11:27:28.111Z,74.00
2017-09-17T11:29:54.706Z,74.00
2017-09-17T11:32:21.356Z,72.40
2017-09-17T11:34:47.714Z,72.90
2017-09-17T11:37:14.099Z,75.00
2017-09-17T11:39:40.493Z,75.40
2017-09-17T11:42:06.862Z,75.00
2017-09-17T11:44:33.254Z,75.80
2017-09-17T11:46:59.587Z,76.50
2017-09-17T11:49:26.369Z,76.20
2017-09-17T11:51:52.726Z,76.70
2017-09-17T11:54:19.887Z,76.50
2017-09-17T11:56:46.275Z,76.50
2017-09-17T11:59:12.636Z,75.70
2017-09-17T12:01:39.774Z,73.50
2017-09-17T12:04:06.865Z,73.30
2017-09-17T12:06:33.528Z,73.30
2017-09-17T12:08:59.898Z,74.20
2017-09-17T12:11:26.299Z,74.70
2017-09-17T12:13:52.687Z,74.20
2017-09-17T12:16:19.787Z,74.00
2017-09-17T12:18:46.912Z,74.70
2017-09-17T12:21:13.303Z,74.70
2017-09-17T12:23:39.991Z,75.20
2017-09-17T12:26:06.376Z,75.30
2017-09-17T12:28:32.731Z,73.90
2017-09-17T12:30:59.895Z,74.00
2017-09-17T12:33:26.264Z,73.90
2017-09-17T12:35:52.616Z,73.80
2017-09-17T12:38:18.988Z,73.50
2017-09-17T12:40:45.375Z,73.40
2017-09-17T12:43:11.735Z,73.90
2017-09-17T12:45:38.492Z,72.80
2017-09-17T12:48:04.862Z,73.20
2017-09-17T12:50:32.146Z,74.50
2017-09-17T12:52:58.554Z,74.90
2017-09-17T12:55:24.899Z,74.70
2017-09-17T12:57:51.271Z,74.30
2017-09-17T13:00:18.356Z,73.30
2017-09-17T13:02:44.734Z,73.20
2017-09-17T13:05:11.897Z,73.70
2017-09-17T13:07:39.041Z,74.20
2017-09-17T13:10:05.415Z,74.20
2017-09-17T13:12:31.820Z,74.60
2017-09-17T13:14:58.196Z,74.10
2017-09-17T13:17:24.615Z,72.80
2017-09-17T13:19:51.277Z,70.60
2017-09-17T13:22:17.659Z,69.60
2017-09-17T13:24:44.020Z,70.00
2017-09-17T13:27:10.418Z,69.80
2017-09-17T13:29:36.765Z,70.20
2017-09-17T13:32:03.134Z,70.80
2017-09-17T13:34:30.243Z,72.00
2017-09-17T13:36:56.624Z,72.00
2017-09-17T13:39:23.782Z,73.50
2017-09-17T13:41:50.980Z,73.10
2017-09-17T13:44:17.386Z,73.00
2017-09-17T13:46:44.072Z,73.20
2017-09-17T13:49:10.641Z,71.10
2017-09-17T13:51:37.016Z,71.20
2017-09-17T13:54:03.438Z,69.50
2017-09-17T13:56:29.853Z,70.30
2017-09-17T13:58:56.276Z,70.80
2017-09-17T14:01:23.641Z,70.90
2017-09-17T14:03:51.773Z,70.70
2017-09-17T14:06:28.810Z,71.50
2017-09-17T14:09:01.177Z,71.40
2017-09-17T14:11:27.576Z,72.50
2017-09-17T14:13:54.283Z,72.60
2017-09-17T14:16:20.680Z,72.00
2017-09-17T14:18:47.070Z,72.80
2017-09-17T14:21:13.481Z,72.40
2017-09-17T14:23:40.589Z,72.30
2017-09-17T14:26:06.987Z,72.20
2017-09-17T14:28:33.380Z,72.30
2017-09-17T14:31:00.531Z,70.90
2017-09-17T14:33:27.604Z,70.20
2017-09-17T14:35:53.979Z,70.00
2017-09-17T14:38:20.369Z,68.90
2017-09-17T14:40:46.992Z,67.60
2017-09-17T14:43:13.343Z,67.30
2017-09-17T14:45:39.700Z,65.60
2017-09-17T14:48:07.188Z,65.60
2017-09-17T14:50:34.302Z,64.60
2017-09-17T14:53:00.705Z,64.50
2017-09-17T14:55:27.062Z,61.50
2017-09-17T14:57:53.419Z,58.30
2017-09-17T15:00:20.520Z,58.80
2017-09-17T15:02:47.216Z,58.80
2017-09-17T15:05:14.355Z,60.40
2017-09-17T15:07:41.511Z,60.20
2017-09-17T15:10:08.608Z,59.70
2017-09-17T15:12:34.993Z,59.70
2017-09-17T15:15:01.350Z,59.50
2017-09-17T15:17:27.727Z,60.20
2017-09-17T15:19:54.110Z,60.60
2017-09-17T15:22:20.494Z,59.10
2017-09-17T15:24:47.586Z,55.00
2017-09-17T15:27:13.929Z,55.00
2017-09-17T15:29:40.603Z,54.10
2017-09-17T15:32:06.983Z,54.60
2017-09-17T15:34:34.079Z,57.70
2017-09-17T15:37:00.475Z,57.70
2017-09-17T15:39:26.871Z,60.00
2017-09-17T15:41:53.270Z,60.50
2017-09-17T15:44:19.596Z,61.70
2017-09-17T15:46:46.018Z,62.50
2017-09-17T15:49:12.540Z,63.40
2017-09-17T15:51:38.968Z,64.30
2017-09-17T15:54:05.354Z,65.40
2017-09-17T15:56:31.754Z,66.00
2017-09-17T15:58:58.904Z,67.40
2017-09-17T16:01:26.024Z,68.10
2017-09-17T16:03:52.421Z,68.00
2017-09-17T16:06:18.827Z,68.60
2017-09-17T16:08:45.243Z,69.00
2017-09-17T16:11:12.338Z,69.50
2017-09-17T16:13:39.009Z,69.40
2017-09-17T16:16:05.389Z,70.00
2017-09-17T16:18:31.756Z,70.70
2017-09-17T16:20:58.200Z,71.40
2017-09-17T16:23:24.571Z,72.30
2017-09-17T16:25:50.978Z,72.70
2017-09-17T16:28:17.397Z,73.60
2017-09-17T16:30:44.119Z,74.60
2017-09-17T16:33:10.533Z,74.20
2017-09-17T16:35:36.948Z,74.70
2017-09-17T16:38:03.367Z,75.60
2017-09-17T16:40:29.744Z,76.20
2017-09-17T16:42:56.127Z,76.40
2017-09-17T16:45:22.529Z,76.30
2017-09-17T16:47:49.673Z,77.60
2017-09-17T16:50:17.003Z,78.40
2017-09-17T16:52:43.432Z,78.30
2017-09-17T16:55:09.869Z,79.10
2017-09-17T16:57:36.645Z,79.90
2017-09-17T17:00:03.067Z,80.80
2017-09-17T17:02:30.211Z,82.40
2017-09-17T17:04:57.365Z,83.30
2017-09-17T17:07:24.526Z,84.30
2017-09-17T17:09:50.926Z,84.20
2017-09-17T17:12:18.155Z,87.20
2017-09-17T17:14:44.617Z,86.40
2017-09-17T17:17:11.774Z,88.00
2017-09-17T17:19:39.245Z,88.30
2017-09-17T17:22:05.730Z,88.30
2017-09-17T17:24:32.193Z,89.10
2017-09-17T17:26:59.386Z,90.30
2017-09-17T17:29:25.757Z,90.30
2017-09-17T17:31:52.209Z,90.40
2017-09-17T17:34:19.371Z,91.30
2017-09-17T17:36:45.797Z,91.30
2017-09-17T17:39:12.236Z,91.50
2017-09-17T17:41:38.681Z,91.70
2017-09-17T17:44:05.058Z,91.70
2017-09-17T17:46:31.462Z,92.00
2017-09-17T17:48:57.861Z,92.50
2017-09-17T17:51:24.283Z,92.30
2017-09-17T17:53:51.081Z,92.50
2017-09-17T17:56:17.513Z,92.40
2017-09-17T17:58:43.884Z,92.40
2017-09-17T18:01:10.351Z,92.60
2017-09-17T18:03:36.822Z,92.80
2017-09-17T18:06:04.063Z,93.10
2017-09-17T18:08:31.205Z,93.20
2017-09-17T18:10:57.599Z,93.20
2017-09-17T18:13:24.036Z,93.50
2017-09-17T18:15:50.829Z,93.70
2017-09-17T18:18:18.043Z,93.70
2017-09-17T18:20:44.443Z,93.70
2017-09-17T18:23:10.909Z,93.60
2017-09-17T18:25:37.349Z,93.60
2017-09-17T18:28:03.737Z,93.60
2017-09-17T18:30:30.159Z,93.80
2017-09-17T18:32:56.665Z,93.80
2017-09-17T18:35:23.901Z,94.10
2017-09-17T18:37:50.462Z,94.10
2017-09-17T18:40:16.907Z,94.10
2017-09-17T18:42:43.642Z,94.20
2017-09-17T18:45:11.692Z,94.30
2017-09-17T18:47:38.171Z,94.30
2017-09-17T18:50:04.869Z,94.20
2017-09-17T18:52:31.337Z,94.30
2017-09-17T18:54:57.844Z,94.50
2017-09-17T18:57:24.353Z,94.80
2017-09-17T18:59:51.609Z,95.10
2017-09-17T19:02:18.009Z,95.00
2017-09-17T19:04:47.814Z,95.40
2017-09-17T19:07:14.289Z,95.30
2017-09-17T19:09:40.768Z,95.20
2017-09-17T19:12:08.138Z,95.30
2017-09-17T19:14:34.601Z,95.40
2017-09-17T19:17:01.124Z,95.40
2017-09-17T19:19:28.394Z,95.60
2017-09-17T19:21:55.155Z,95.60
2017-09-17T19:24:21.704Z,95.70
2017-09-17T19:26:48.146Z,95.70
2017-09-17T19:29:14.643Z,95.60
2017-09-17T19:31:41.115Z,95.40
2017-09-17T19:34:07.559Z,95.30
2017-09-17T19:36:34.025Z,95.80
2017-09-17T19:39:00.560Z,96.00
2017-09-17T19:41:27.188Z,96.10
2017-09-17T19:43:53.668Z,96.10
2017-09-17T19:46:20.165Z,96.20
2017-09-17T19:48:46.734Z,96.20
2017-09-17T19:51:13.187Z,96.20
2017-09-17T19:53:40.076Z,96.20
2017-09-17T19:56:06.559Z,96.30
2017-09-17T19:58:33.021Z,96.20
2017-09-17T20:00:59.497Z,96.20
2017-09-17T20:03:25.933Z,96.20
2017-09-17T20:05:52.436Z,96.20
2017-09-17T20:08:18.928Z,96.30
2017-09-17T20:10:45.400Z,96.30
2017-09-17T20:13:11.907Z,96.50
2017-09-17T20:15:39.476Z,96.60
2017-09-17T20:18:05.925Z,96.60
2017-09-17T20:20:33.054Z,96.60
2017-09-17T20:22:59.569Z,96.90
2017-09-17T20:25:26.039Z,96.50
2017-09-17T20:27:52.460Z,96.60
2017-09-17T20:30:18.871Z,96.60
2017-09-17T20:32:46.068Z,96.70
2017-09-17T20:35:12.457Z,96.70
2017-09-17T20:37:38.869Z,96.80
2017-09-17T20:40:05.238Z,96.80
2017-09-17T20:42:31.893Z,96.90
2017-09-17T20:44:58.313Z,97.00
2017-09-17T20:47:24.745Z,96.90
2017-09-17T20:49:51.168Z,96.70
2017-09-17T20:52:17.564Z,96.70
2017-09-17T20:54:44.691Z,96.70
2017-09-17T20:57:11.068Z,96.60
2017-09-17T20:59:37.771Z,96.50
2017-09-17T21:02:04.160Z,96.40
2017-09-17T21:04:30.553Z,96.60
2017-09-17T21:06:57.001Z,96.60
2017-09-17T21:09:23.357Z,96.60
2017-09-17T21:11:49.768Z,96.60
2017-09-17T21:14:16.155Z,96.50
2017-09-17T21:16:42.562Z,96.50
2017-09-17T21:19:08.930Z,96.50
2017-09-17T21:21:36.371Z,96.90
2017-09-17T21:24:02.746Z,96.90
2017-09-17T21:26:29.102Z,97.00
2017-09-17T21:28:56.431Z,96.90
2017-09-17T21:31:22.855Z,96.80
2017-09-17T21:33:49.228Z,97.10
2017-09-17T21:36:15.602Z,96.60
2017-09-17T21:38:42.049Z,96.60
2017-09-17T21:41:08.425Z,96.60
2017-09-17T21:43:34.817Z,96.60
2017-09-17T21:46:01.177Z,96.70
2017-09-17T21:48:27.649Z,96.60
2017-09-17T21:50:54.014Z,96.70
2017-09-17T21:53:20.389Z,96.80
2017-09-17T21:55:47.590Z,97.00
2017-09-17T21:58:14.022Z,97.00
2017-09-17T22:00:40.783Z,96.90
2017-09-17T22:03:07.126Z,96.90
2017-09-17T22:05:33.525Z,96.80
2017-09-17T22:07:59.932Z,96.70
2017-09-17T22:10:26.373Z,96.60
2017-09-17T22:12:52.743Z,96.60
2017-09-17T22:15:19.119Z,96.70
2017-09-17T22:17:45.772Z,96.70
2017-09-17T22:20:12.168Z,96.70
2017-09-17T22:22:39.251Z,96.80
2017-09-17T22:25:05.605Z,96.70
2017-09-17T22:27:31.940Z,96.80
2017-09-17T22:29:58.301Z,96.80
2017-09-17T22:32:25.407Z,97.00
2017-09-17T22:34:51.778Z,97.00
2017-09-17T22:37:18.874Z,97.20
2017-09-17T22:39:45.531Z,97.10
2017-09-17T22:42:11.892Z,97.30
2017-09-17T22:44:38.269Z,97.20
2017-09-17T22:47:04.669Z,97.20
2017-09-17T22:49:31.069Z,97.20
2017-09-17T22:51:57.423Z,97.00
2017-09-17T22:54:23.804Z,96.90
2017-09-17T22:56:50.447Z,96.90
2017-09-17T22:59:16.779Z,96.90
2017-09-17T23:01:43.122Z,97.00
2017-09-17T23:04:09.468Z,97.20
2017-09-17T23:06:36.583Z,97.40
2017-09-17T23:09:03.022Z,97.40
2017-09-17T23:11:30.105Z,97.30
2017-09-17T23:13:56.391Z,97.20
2017-09-17T23:16:22.728Z,97.20
2017-09-17T23:18:50.166Z,97.20
2017-09-17T23:21:16.525Z,97.20
2017-09-17T23:23:43.643Z,97.20
2017-09-17T23:26:10.030Z,97.20
2017-09-17T23:28:36.354Z,97.20
2017-09-17T23:31:02.713Z,97.10
2017-09-17T23:33:29.797Z,97.00
2017-09-17T23:35:56.883Z,96.80
2017-09-17T23:38:30.104Z,96.90
2017-09-17T23:40:56.437Z,96.90
2017-09-17T23:43:22.799Z,96.80
2017-09-17T23:45:50.228Z,96.90
2017-09-17T23:48:16.590Z,96.90
2017-09-17T23:50:42.939Z,97.00
2017-09-17T23:53:09.324Z,97.00
2017-09-17T23:55:35.646Z,97.10
2017-09-17T23:58:02.035Z,97.10
